Página principal
METAR-TAF:

METAR-TAF

Aeroportos :

Aeroporto Internacional Benazir Bhutto

Islamabad, Paquistão

latitude: 33-37N, longitude: 073-06E, altura: 507 m

Observação actual do tempo

O boletim foi feito há 44 minutos, às 20:00 UTC
Vento 4 kt de nordeste
Temperatura 9°C
Humidade 81%
Pressão 1022 hPa
Visibilidade: 7000 m

METAR: OPRN 122000Z 05004KT 7000 NSC 09/06 Q1022 NOSIG RMK A3020

Hora: 01:44 (20:44 UTC)

Previsão

O boletim foi feito há 5 horas e 14 minutos, às 15:30 UTC
Previsão válida de 12 às 18 UTC a 13 às 24 UTC
Vento 8 kt de su-sudoeste
Visibilidade: 7000 m
Temporariamente
de 12 às 24 UTC a 13 às 03 UTC
Visibilidade: 1800 m
Nuvens dispersasa uma altura de 4000 ft
neblina
Tornando-se
de 13 às 07 UTC a 13 às 09 UTC
Visibilidade 10 km ou mais

TAF: OPRN 121530Z 1218/1324 21008KT 7000 NSC TEMPO 1224/1303 1800 BR SCT040 BECMG 1307/1309 9999 NSC

Observações e previsões do tempo de mais de 4000 aeroportos (mensagens METAR e TAF).

As estações disponíveis são os pontos amarelos e vermelhos sobre o mapa.

Mova o rato sobre o mapa para ver o nome da estação.

Depois clique no ponto para visualizar as observações e previsões meteorológicas.

Para alterar o mapa : clique nos botões verdes com uma cruz preta para aumentar o zoom; no botão verde com uma pitada de zoom; ou nas setas verdes para mapas adjacentes.


METAR-TAF: